.
WxDataArchive / Data Records for 2012-04-23
2012-04-22 April 2012 2012-04-24

Data Records for Monday, 23 April 2012

Time	Temp	Chill	HIndex	Humid	Dewpt	 Wind 	HiWind	WindDir	Rain 	Barom 
-----	----	-----	------	-----	-----	------	------	-------	-----	----- 
00:00	40.5	40.5	40.5	51	23.8	1	3	0	0.00	29.971 
00:05	40.3	40.3	40.3	51	23.6	0	2	0	0.00	29.971 
00:10	40.2	40.2	40.2	52	24.0	0	1	0	0.00	29.971 
00:15	40.1	40.1	40.1	52	23.9	0	2	0	0.00	29.964 
00:20	39.9	39.9	39.9	52	23.7	0	2	0	0.00	29.964 
00:25	39.8	39.8	39.8	53	24.1	0	3	0	0.00	29.964 
00:30	39.6	39.6	39.6	53	23.9	0	2	315	0.00	29.961 
00:35	39.6	39.6	39.6	53	23.9	0	3	292	0.00	29.961 
00:40	39.6	39.6	39.6	53	23.9	0	2	292	0.00	29.961 
00:45	39.5	39.5	39.5	52	23.3	0	3	292	0.00	29.956 
00:50	39.5	39.5	39.5	52	23.3	0	3	292	0.00	29.956 
00:55	39.3	39.3	39.3	53	23.6	0	2	292	0.00	29.956 
01:00	39.2	39.2	39.2	53	23.5	0	2	292	0.00	29.957 
01:05	39.2	39.2	39.2	52	23.1	1	4	292	0.00	29.957 
01:10	39.1	39.1	39.1	52	23.0	0	3	292	0.00	29.957 
01:15	39.1	39.1	39.1	52	23.0	0	2	292	0.00	29.948 
01:20	39.1	39.1	39.1	51	22.5	1	3	292	0.00	29.948 
01:25	39.1	39.1	39.1	51	22.5	0	2	292	0.00	29.948 
01:30	38.9	38.9	38.9	51	22.3	0	1	292	0.00	29.941 
01:35	39.1	39.1	39.1	50	22.0	0	3	292	0.00	29.941 
01:40	39.2	39.2	39.2	50	22.1	0	3	0	0.00	29.941 
01:45	39.2	39.2	39.2	49	21.7	0	1	0	0.00	29.939 
01:50	39.2	39.2	39.2	48	21.2	1	5	270	0.00	29.939 
01:55	39.3	39.3	39.3	48	21.3	1	4	270	0.00	29.939 
02:00	39.3	39.3	39.3	48	21.3	0	3	270	0.00	29.932 
02:05	39.3	39.3	39.3	48	21.3	0	2	338	0.00	29.932 
02:10	39.3	39.3	39.3	48	21.3	0	2	338	0.00	29.932 
02:15	39.2	39.2	39.2	48	21.2	0	1	338	0.00	29.926 
02:20	39.1	39.1	39.1	48	21.1	0	3	315	0.00	29.926 
02:25	38.8	38.8	38.8	49	21.3	0	2	315	0.00	29.926 
02:30	38.8	38.8	38.8	49	21.3	0	1	315	0.00	29.924 
02:35	38.6	38.6	38.6	49	21.1	1	2	315	0.00	29.924 
02:40	38.5	38.5	38.5	49	21.0	0	4	315	0.00	29.924 
02:45	38.5	38.5	38.5	49	21.0	1	3	292	0.00	29.918 
02:50	38.3	38.3	38.3	50	21.3	0	3	292	0.00	29.918 
02:55	38.2	38.2	38.2	50	21.2	0	4	292	0.00	29.918 
03:00	38.0	38.0	38.0	50	21.0	0	2	292	0.00	29.915 
03:05	37.9	37.9	37.9	51	21.4	0	1	292	0.00	29.915 
03:10	37.8	37.8	37.8	51	21.3	0	2	292	0.00	29.915 
03:15	37.9	37.9	37.9	51	21.4	0	2	292	0.00	29.911 
03:20	38.0	38.0	38.0	51	21.5	0	3	292	0.00	29.911 
03:25	38.2	38.2	38.2	50	21.2	1	2	292	0.00	29.911 
03:30	38.5	38.5	38.5	50	21.5	1	5	292	0.00	29.907 
03:35	38.5	38.5	38.5	51	22.0	0	2	315	0.00	29.907 
03:40	38.5	38.5	38.5	50	21.5	0	2	315	0.00	29.907 
03:45	38.5	38.5	38.5	50	21.5	0	2	315	0.00	29.906 
03:50	38.5	38.5	38.5	50	21.5	1	4	315	0.00	29.906 
03:55	38.3	38.3	38.3	51	21.8	0	2	292	0.00	29.906 
04:00	38.3	38.3	38.3	50	21.3	1	3	292	0.00	29.906 
04:05	38.2	38.2	38.2	50	21.2	1	3	292	0.00	29.906 
04:10	38.3	38.3	38.3	50	21.3	1	4	292	0.00	29.906 
04:15	38.3	38.3	38.3	50	21.3	0	4	292	0.00	29.903 
04:20	38.3	38.3	38.3	49	20.8	1	3	292	0.00	29.903 
04:25	38.3	38.3	38.3	49	20.8	1	4	292	0.00	29.903 
04:30	38.3	38.3	38.3	49	20.8	0	2	292	0.00	29.900 
04:35	38.0	38.0	38.0	50	21.0	1	4	292	0.00	29.900 
04:40	37.9	37.9	37.9	50	20.9	0	3	292	0.00	29.900 
04:45	37.8	37.8	37.8	50	20.8	1	3	292	0.00	29.895 
04:50	37.6	37.6	37.6	51	21.1	0	2	292	0.00	29.895 
04:55	37.6	37.6	37.6	50	20.7	0	3	292	0.00	29.895 
05:00	37.5	37.5	37.5	51	21.0	0	3	292	0.00	29.891 
05:05	37.5	37.5	37.5	51	21.0	0	2	338	0.00	29.891 
05:10	37.5	37.5	37.5	51	21.0	0	2	292	0.00	29.891 
05:15	37.3	37.3	37.3	51	20.9	0	4	292	0.00	29.892 
05:20	37.3	37.3	37.3	51	20.9	1	4	270	0.00	29.892 
05:25	37.2	37.2	37.2	51	20.8	1	3	270	0.00	29.892 
05:30	37.2	37.2	37.2	52	21.2	1	3	270	0.00	29.892 
05:35	37.2	37.2	37.2	51	20.8	1	4	270	0.00	29.892 
05:40	37.3	37.3	37.3	51	20.9	1	4	270	0.00	29.892 
05:45	37.3	37.3	37.3	51	20.9	1	4	292	0.00	29.890 
05:50	37.3	37.3	37.3	51	20.9	1	2	292	0.00	29.890 
05:55	37.3	37.3	37.3	51	20.9	1	5	292	0.00	29.890 
06:00	37.5	37.5	37.5	50	20.6	1	3	338	0.00	29.886 
06:05	37.5	37.5	37.5	50	20.6	1	5	292	0.00	29.886 
06:10	37.5	37.5	37.5	50	20.6	1	4	338	0.00	29.886 
06:15	37.3	37.3	37.3	50	20.4	1	4	248	0.00	29.887 
06:20	37.2	37.2	37.2	50	20.3	0	2	248	0.00	29.887 
06:25	37.0	37.0	37.0	51	20.6	0	4	292	0.00	29.887 
06:30	36.9	36.9	36.9	51	20.5	1	5	292	0.00	29.887 
06:35	37.0	37.0	37.0	51	20.6	1	3	0	0.00	29.887 
06:40	36.9	36.9	36.9	51	20.5	1	3	315	0.00	29.887 
06:45	36.9	36.9	36.9	52	20.9	0	3	315	0.00	29.886 
06:50	36.9	36.9	36.9	52	20.9	1	3	315	0.00	29.886 
06:55	36.8	36.8	36.8	52	20.8	1	5	315	0.00	29.886 
07:00	36.6	36.6	36.6	53	21.1	1	3	315	0.00	29.887 
07:05	36.6	36.6	36.6	53	21.1	1	6	292	0.00	29.887 
07:10	36.6	36.6	36.6	54	21.5	1	3	292	0.00	29.887 
07:15	36.5	36.5	36.5	54	21.5	1	4	0	0.00	29.890 
07:20	36.5	36.5	36.5	54	21.5	0	3	248	0.00	29.890 
07:25	36.5	36.5	36.5	54	21.5	0	2	248	0.00	29.890 
07:30	36.5	36.5	36.5	54	21.5	1	3	248	0.00	29.888 
07:35	36.5	36.5	36.5	54	21.5	0	3	248	0.00	29.888 
07:40	36.5	36.5	36.5	54	21.5	0	2	248	0.00	29.888 
07:45	36.8	36.8	36.8	54	21.7	1	5	248	0.00	29.890 
07:50	37.0	37.0	37.0	54	21.9	1	2	270	0.00	29.890 
07:55	37.2	37.2	37.2	54	22.1	0	3	315	0.00	29.890 
08:00	37.5	37.5	37.5	54	22.4	1	4	270	0.00	29.888 
08:05	37.8	37.8	37.8	53	22.2	1	3	315	0.00	29.888 
08:10	38.2	38.2	38.2	52	22.1	1	3	315	0.00	29.888 
08:15	38.5	38.5	38.5	52	22.4	2	5	0	0.00	29.886 
08:20	38.9	38.9	38.9	51	22.3	2	6	292	0.00	29.886 
08:25	39.3	39.3	39.3	51	22.7	1	3	315	0.00	29.886 
08:30	39.9	39.9	39.9	50	22.8	1	6	338	0.00	29.880 
08:35	40.3	40.3	40.3	50	23.2	1	3	270	0.00	29.880 
08:40	40.8	40.8	40.8	49	23.1	1	3	270	0.00	29.880 
08:45	41.3	41.3	41.3	47	22.6	1	5	338	0.00	29.880 
08:50	41.8	41.8	41.8	47	23.1	1	4	315	0.00	29.880 
08:55	42.2	42.2	42.2	47	23.4	1	5	270	0.00	29.880 
09:00	42.8	42.8	42.8	48	24.5	1	6	338	0.00	29.877 
09:05	43.2	43.2	43.2	46	23.8	1	5	270	0.00	29.877 
09:10	43.6	43.6	43.6	44	23.1	2	5	270	0.00	29.877 
09:15	43.9	43.9	43.9	43	22.9	2	4	270	0.00	29.877 
09:20	44.2	44.2	44.2	43	23.1	1	4	338	0.00	29.877 
09:25	44.8	44.8	44.8	41	22.6	1	4	315	0.00	29.877 
09:30	45.2	45.2	45.2	41	22.9	2	5	315	0.00	29.876 
09:35	45.7	45.7	45.7	41	23.4	1	3	292	0.00	29.876 
09:40	46.0	46.0	46.0	39	22.4	1	5	315	0.00	29.876 
09:45	46.2	46.2	46.2	38	22.0	2	6	292	0.00	29.871 
09:50	46.7	46.7	46.7	39	23.1	1	5	338	0.00	29.871 
09:55	47.3	47.3	47.3	38	23.0	1	3	292	0.00	29.871 
10:00	47.6	47.6	47.6	37	22.6	2	5	270	0.00	29.864 
10:05	47.9	47.9	47.9	37	22.9	2	5	0	0.00	29.864 
10:10	48.0	48.0	48.0	34	21.0	2	5	315	0.00	29.864 
10:15	48.2	48.2	48.2	34	21.2	2	10	292	0.00	29.860 
10:20	48.5	48.5	48.5	32	20.0	3	11	338	0.00	29.860 
10:25	48.8	48.8	48.8	33	21.0	3	7	292	0.00	29.860 
10:30	49.2	49.2	49.2	32	20.6	2	6	315	0.00	29.857 
10:35	49.4	49.4	49.4	31	20.0	3	13	270	0.00	29.857 
10:40	49.8	49.8	49.8	32	21.1	3	10	315	0.00	29.857 
10:45	50.4	50.4	50.4	32	21.7	2	9	248	0.00	29.854 
10:50	50.8	50.8	50.8	31	21.3	1	4	0	0.00	29.854 
10:55	51.3	51.3	51.3	31	21.7	2	8	315	0.00	29.854 
11:00	51.1	51.1	51.1	27	18.3	3	7	338	0.00	29.845 
11:05	51.1	51.1	51.1	27	18.3	3	9	338	0.00	29.845 
11:10	51.4	51.4	51.4	29	20.2	2	6	315	0.00	29.845 
11:15	51.7	51.7	51.7	26	17.9	4	14	315	0.00	29.843 
11:20	52.2	52.2	52.2	25	17.5	3	11	292	0.00	29.843 
11:25	51.9	51.9	51.9	26	18.1	3	9	270	0.00	29.843 
11:30	52.0	52.0	52.0	27	19.1	3	10	292	0.00	29.842 
11:35	52.0	52.0	52.0	24	16.3	3	10	315	0.00	29.842 
11:40	52.5	52.5	52.5	24	16.8	4	13	315	0.00	29.842 
11:45	52.3	52.3	52.3	27	19.3	3	13	315	0.00	29.840 
11:50	52.6	52.6	52.6	24	16.9	3	9	338	0.00	29.840 
11:55	52.3	52.3	52.3	24	16.6	4	13	0	0.00	29.840 
12:00	52.3	52.3	52.3	23	15.6	4	15	338	0.00	29.832 
12:05	52.5	52.5	52.5	24	16.8	3	12	338	0.00	29.832 
12:10	52.6	52.6	52.6	23	15.9	3	11	338	0.00	29.832 
12:15	53.2	53.2	53.2	23	16.4	3	10	270	0.00	29.826 
12:20	53.2	53.2	53.2	23	16.4	3	10	338	0.00	29.826 
12:25	53.2	53.2	53.2	24	17.4	3	7	338	0.00	29.826 
12:30	53.3	53.3	53.3	24	17.4	4	10	292	0.00	29.823 
12:35	53.6	53.6	53.6	23	16.7	4	9	292	0.00	29.823 
12:40	53.6	53.6	53.6	23	16.7	4	6	292	0.00	29.823 
12:45	53.9	53.9	53.9	25	18.9	4	12	292	0.00	29.810 
12:50	54.1	54.1	54.1	23	17.1	4	11	292	0.00	29.810 
12:55	54.4	54.4	54.4	23	17.4	3	11	292	0.00	29.810 
13:00	54.5	54.5	54.5	22	16.4	2	6	338	0.00	29.804 
13:05	54.7	54.7	54.7	21	15.5	3	10	338	0.00	29.804 
13:10	54.7	54.7	54.7	22	16.6	4	13	292	0.00	29.804 
13:15	54.7	54.7	54.7	20	14.4	5	15	270	0.00	29.799 
13:20	55.0	55.0	55.0	22	16.9	4	13	315	0.00	29.799 
13:25	55.1	55.1	55.1	20	14.8	3	10	292	0.00	29.799 
13:30	55.1	55.1	55.1	19	13.6	3	12	338	0.00	29.793 
13:35	55.3	55.3	55.3	20	14.9	4	10	315	0.00	29.793 
13:40	55.3	55.3	55.3	21	16.0	3	10	315	0.00	29.793 
13:45	55.3	55.3	55.3	20	14.9	4	13	292	0.00	29.790 
13:50	55.6	55.6	55.6	22	17.4	4	12	315	0.00	29.790 
13:55	55.6	55.6	55.6	18	12.8	5	17	270	0.00	29.790 
14:00	55.6	55.6	55.6	22	17.4	4	17	315	0.00	29.784 
14:05	55.9	55.9	55.9	20	15.4	3	7	270	0.00	29.784 
14:10	56.0	56.0	56.0	21	16.6	4	11	270	0.00	29.784 
14:15	55.7	55.7	55.7	20	15.3	4	10	338	0.00	29.777 
14:20	56.0	56.0	56.0	22	17.7	3	7	270	0.00	29.777 
14:25	56.0	56.0	56.0	21	16.6	5	18	292	0.00	29.777 
14:30	56.0	56.0	56.0	19	14.3	5	11	292	0.00	29.771 
14:35	56.6	56.6	56.6	21	17.1	3	6	292	0.00	29.771 
14:40	56.5	56.5	56.5	19	14.8	5	16	0	0.00	29.771 
14:45	56.3	56.3	56.3	20	15.8	3	7	338	0.00	29.767 
14:50	56.5	56.5	56.5	20	15.9	3	13	315	0.00	29.767 
14:55	56.7	56.7	56.7	21	17.2	3	14	270	0.00	29.767 
15:00	57.2	57.2	57.2	21	17.6	2	7	0	0.00	29.759 
15:05	57.3	57.3	57.3	19	15.4	4	7	315	0.00	29.759 
15:10	57.0	57.0	57.0	18	13.9	3	9	338	0.00	29.759 
15:15	57.3	57.3	57.3	20	16.6	3	12	292	0.00	29.760 
15:20	57.2	57.2	57.2	20	16.5	4	9	315	0.00	29.760 
15:25	56.9	56.9	56.9	20	16.3	4	11	292	0.00	29.760 
15:30	56.9	56.9	56.9	21	17.4	3	7	0	0.00	29.756 
15:35	57.2	57.2	57.2	19	15.3	4	9	270	0.00	29.756 
15:40	57.2	57.2	57.2	21	17.6	3	7	338	0.00	29.756 
15:45	57.5	57.5	57.5	19	15.6	3	11	0	0.00	29.748 
15:50	57.8	57.8	57.8	20	17.0	2	6	270	0.00	29.748 
15:55	58.0	58.0	58.0	22	19.4	4	11	0	0.00	29.748 
16:00	57.3	57.3	57.3	24	20.8	4	8	292	0.00	29.743 
16:05	57.0	57.0	57.0	24	20.6	5	12	270	0.00	29.743 
16:10	57.0	57.0	57.0	25	21.5	4	14	292	0.00	29.743 
16:15	57.0	57.0	57.0	25	21.5	3	5	292	0.00	29.744 
16:20	56.9	56.9	56.9	27	23.3	3	9	315	0.00	29.744 
16:25	56.6	56.6	56.6	25	21.2	4	10	315	0.00	29.744 
16:30	56.3	56.3	56.3	26	21.9	3	8	315	0.00	29.741 
16:35	56.3	56.3	56.3	26	21.9	4	11	315	0.00	29.741 
16:40	56.2	56.2	56.2	27	22.7	4	12	315	0.00	29.741 
16:45	56.3	56.3	56.3	28	23.6	3	7	0	0.00	29.743 
16:50	56.0	56.0	56.0	27	22.5	4	9	292	0.00	29.743 
16:55	55.6	55.6	55.6	26	21.3	5	10	270	0.00	29.743 
17:00	55.4	55.4	55.4	27	22.0	4	10	270	0.00	29.746 
17:05	55.4	55.4	55.4	27	22.0	3	8	315	0.00	29.746 
17:10	55.1	55.1	55.1	26	20.8	4	10	315	0.00	29.746 
17:15	55.1	55.1	55.1	25	19.9	5	10	270	0.00	29.745 
17:20	54.7	54.7	54.7	25	19.6	7	14	270	0.00	29.745 
17:25	54.8	54.8	54.8	26	20.6	4	9	292	0.00	29.745 
17:30	54.8	54.8	54.8	25	19.7	4	10	270	0.00	29.746 
17:35	54.8	54.8	54.8	25	19.7	4	11	292	0.00	29.746 
17:40	54.7	54.7	54.7	25	19.6	4	12	292	0.00	29.746 
17:45	54.7	54.7	54.7	25	19.6	4	8	270	0.00	29.747 
17:50	54.4	54.4	54.4	24	18.4	5	15	315	0.00	29.747 
17:55	54.2	54.2	54.2	24	18.2	5	16	315	0.00	29.747 
18:00	53.9	53.9	53.9	25	18.9	4	10	292	0.00	29.748 
18:05	53.9	53.9	53.9	25	18.9	4	7	270	0.00	29.748 
18:10	53.9	53.9	53.9	24	18.0	4	12	292	0.00	29.748 
18:15	53.8	53.8	53.8	25	18.8	3	9	315	0.00	29.749 
18:20	53.5	53.5	53.5	23	16.6	5	14	270	0.00	29.749 
18:25	53.2	53.2	53.2	24	17.4	5	12	315	0.00	29.749 
18:30	53.1	53.1	53.1	25	18.2	4	14	292	0.00	29.750 
18:35	52.9	52.9	52.9	23	16.1	4	13	292	0.00	29.750 
18:40	52.8	52.8	52.8	23	16.0	4	7	315	0.00	29.750 
18:45	52.8	52.8	52.8	23	16.0	4	11	270	0.00	29.751 
18:50	52.5	52.5	52.5	24	16.8	4	10	292	0.00	29.751 
18:55	52.3	52.3	52.3	23	15.6	4	9	292	0.00	29.751 
19:00	52.0	52.0	52.0	24	16.3	5	11	315	0.00	29.750 
19:05	52.0	52.0	52.0	25	17.3	2	6	315	0.00	29.750 
19:10	51.7	51.7	51.7	25	17.0	4	11	292	0.00	29.750 
19:15	51.6	51.6	51.6	24	16.0	4	10	315	0.00	29.748 
19:20	51.3	51.3	51.3	25	16.7	2	5	270	0.00	29.748 
19:25	51.1	51.1	51.1	24	15.6	4	9	270	0.00	29.748 
19:30	50.8	50.8	50.8	25	16.3	2	7	292	0.00	29.747 
19:35	50.7	50.7	50.7	25	16.2	2	9	292	0.00	29.747 
19:40	50.5	50.5	50.5	25	16.0	3	10	315	0.00	29.747 
19:45	50.2	50.2	50.2	25	15.8	4	12	315	0.00	29.748 
19:50	49.9	48.8	49.9	24	14.6	4	12	292	0.00	29.748 
19:55	49.8	49.8	49.8	25	15.4	3	7	292	0.00	29.748 
20:00	49.6	49.6	49.6	25	15.2	1	4	270	0.00	29.747 
20:05	49.4	49.4	49.4	25	15.1	2	7	270	0.00	29.747 
20:10	49.1	49.1	49.1	25	14.8	3	10	315	0.00	29.747 
20:15	48.9	48.9	48.9	25	14.6	2	5	292	0.00	29.738 
20:20	48.8	48.8	48.8	25	14.6	3	7	270	0.00	29.738 
20:25	48.6	48.6	48.6	25	14.4	3	7	338	0.00	29.738 
20:30	48.5	48.5	48.5	26	15.2	3	6	292	0.00	29.735 
20:35	48.2	48.2	48.2	27	15.8	2	6	270	0.00	29.735 
20:40	48.0	48.0	48.0	27	15.6	3	7	270	0.00	29.735 
20:45	48.0	48.0	48.0	26	14.8	3	5	315	0.00	29.736 
20:50	47.9	47.9	47.9	27	15.5	2	5	292	0.00	29.736 
20:55	47.7	47.7	47.7	27	15.4	2	7	292	0.00	29.736 
21:00	47.6	47.6	47.6	28	16.1	2	4	0	0.00	29.734 
21:05	47.4	47.4	47.4	27	15.1	2	5	292	0.00	29.734 
21:10	47.3	47.3	47.3	27	15.0	2	5	270	0.00	29.734 
21:15	47.3	47.3	47.3	28	15.9	2	5	270	0.00	29.730 
21:20	47.1	47.1	47.1	27	14.9	2	6	270	0.00	29.730 
21:25	47.1	47.1	47.1	28	15.7	2	7	270	0.00	29.730 
21:30	47.0	47.0	47.0	29	16.4	2	5	338	0.00	29.730 
21:35	47.0	47.0	47.0	28	15.6	2	7	292	0.00	29.730 
21:40	46.8	46.8	46.8	28	15.4	2	6	292	0.00	29.730 
21:45	46.8	46.8	46.8	29	16.2	1	4	270	0.00	29.730 
21:50	46.7	46.7	46.7	29	16.2	2	5	338	0.00	29.730 
21:55	46.5	46.5	46.5	28	15.2	2	6	270	0.00	29.730 
22:00	46.5	46.5	46.5	29	16.0	2	4	315	0.00	29.729 
22:05	46.4	46.4	46.4	29	15.9	2	6	270	0.00	29.729 
22:10	46.2	46.2	46.2	29	15.7	2	5	338	0.00	29.729 
22:15	46.1	46.1	46.1	29	15.6	2	5	270	0.00	29.728 
22:20	45.8	45.8	45.8	30	16.1	2	6	248	0.00	29.728 
22:25	45.7	45.7	45.7	30	16.1	1	5	248	0.00	29.728 
22:30	45.5	45.5	45.5	30	15.9	1	4	248	0.00	29.727 
22:35	45.4	45.4	45.4	31	16.6	1	3	292	0.00	29.727 
22:40	45.2	45.2	45.2	31	16.4	0	2	292	0.00	29.727 
22:45	45.1	45.1	45.1	31	16.3	1	3	270	0.00	29.727 
22:50	44.8	44.8	44.8	31	16.0	1	3	315	0.00	29.727 
22:55	44.6	44.6	44.6	32	16.6	1	4	270	0.00	29.727 
23:00	44.3	44.3	44.3	33	17.0	1	3	270	0.00	29.727 
23:05	44.2	44.2	44.2	33	16.9	1	4	270	0.00	29.727 
23:10	44.2	44.2	44.2	33	16.9	1	4	315	0.00	29.727 
23:15	43.9	43.9	43.9	33	16.7	1	3	315	0.00	29.724 
23:20	43.8	43.8	43.8	33	16.6	1	3	315	0.00	29.724 
23:25	43.5	43.5	43.5	34	17.0	0	3	315	0.00	29.724 
23:30	43.3	43.3	43.3	34	16.8	1	2	292	0.00	29.719 
23:35	43.2	43.2	43.2	34	16.8	1	2	292	0.00	29.719 
23:40	43.1	43.1	43.1	35	17.3	1	4	292	0.00	29.719 
23:45	42.8	42.8	42.8	35	17.1	0	1	292	0.00	29.714 
23:50	42.5	42.5	42.5	35	16.8	0	2	292	0.00	29.714 
23:55	42.3	42.3	42.3	35	16.6	0	1	292	0.00	29.714 

CoCoRaHS
IN-AL-39
A2 Web Hosting
Creative Commons License
GoDaddy
search engine by freefind advanced

loaded 2018-11-17 22:30:24 • last modified 2010-11-18 10:43:29
Privacy PolicyDisclaimer
• wx.awcolley.com is powered by PmWiki v.2002016 •
• all content (unless otherwise noted) © 2018 A W Colley